sensor_id;sensor_type;location;lat;lon;timestamp;temperature;humidity
34837;DHT22;21053;50.848;4.652;2023-08-08T00:00:02;13.10;99.90
34837;DHT22;21053;50.848;4.652;2023-08-08T00:02:30;13.10;99.90
34837;DHT22;21053;50.848;4.652;2023-08-08T00:04:59;13.00;99.90
34837;DHT22;21053;50.848;4.652;2023-08-08T00:07:26;12.90;99.90
34837;DHT22;21053;50.848;4.652;2023-08-08T00:09:56;12.80;99.90
34837;DHT22;21053;50.848;4.652;2023-08-08T00:12:22;12.90;99.90
34837;DHT22;21053;50.848;4.652;2023-08-08T00:14:48;12.80;99.90
34837;DHT22;21053;50.848;4.652;2023-08-08T00:17:14;12.70;99.90
34837;DHT22;21053;50.848;4.652;2023-08-08T00:19:41;12.70;99.90
34837;DHT22;21053;50.848;4.652;2023-08-08T00:22:08;12.60;99.90
34837;DHT22;21053;50.848;4.652;2023-08-08T00:24:44;12.70;99.90
34837;DHT22;21053;50.848;4.652;2023-08-08T00:27:11;12.70;99.90
34837;DHT22;21053;50.848;4.652;2023-08-08T00:32:36;12.70;99.90
34837;DHT22;21053;50.848;4.652;2023-08-08T00:35:20;12.60;99.90
34837;DHT22;21053;50.848;4.652;2023-08-08T00:37:46;12.80;99.90
34837;DHT22;21053;50.848;4.652;2023-08-08T00:40:13;12.90;99.90
34837;DHT22;21053;50.848;4.652;2023-08-08T00:42:40;12.70;99.90
34837;DHT22;21053;50.848;4.652;2023-08-08T00:45:07;12.70;99.90
34837;DHT22;21053;50.848;4.652;2023-08-08T00:47:36;12.80;99.90
34837;DHT22;21053;50.848;4.652;2023-08-08T00:50:02;12.80;99.90
34837;DHT22;21053;50.848;4.652;2023-08-08T00:52:32;12.80;99.90
34837;DHT22;21053;50.848;4.652;2023-08-08T00:55:01;12.80;99.90
34837;DHT22;21053;50.848;4.652;2023-08-08T00:57:28;12.90;99.90
34837;DHT22;21053;50.848;4.652;2023-08-08T00:59:55;12.90;99.90
34837;DHT22;21053;50.848;4.652;2023-08-08T01:02:22;12.90;99.90
34837;DHT22;21053;50.848;4.652;2023-08-08T01:04:49;12.80;99.90
34837;DHT22;21053;50.848;4.652;2023-08-08T01:07:43;12.80;99.90
34837;DHT22;21053;50.848;4.652;2023-08-08T01:10:21;12.90;99.90
34837;DHT22;21053;50.848;4.652;2023-08-08T01:12:52;13.00;99.90
34837;DHT22;21053;50.848;4.652;2023-08-08T01:15:18;13.20;99.90
34837;DHT22;21053;50.848;4.652;2023-08-08T01:17:46;13.20;99.90
34837;DHT22;21053;50.848;4.652;2023-08-08T01:20:14;13.30;99.90
34837;DHT22;21053;50.848;4.652;2023-08-08T01:22:58;13.40;99.90
34837;DHT22;21053;50.848;4.652;2023-08-08T01:25:29;13.30;99.90
34837;DHT22;21053;50.848;4.652;2023-08-08T01:27:55;13.40;99.90
34837;DHT22;21053;50.848;4.652;2023-08-08T01:30:21;13.50;99.90
34837;DHT22;21053;50.848;4.652;2023-08-08T01:32:50;13.50;99.90
34837;DHT22;21053;50.848;4.652;2023-08-08T01:35:45;13.50;99.90
34837;DHT22;21053;50.848;4.652;2023-08-08T01:38:38;13.50;99.90
34837;DHT22;21053;50.848;4.652;2023-08-08T01:41:07;13.60;99.90
34837;DHT22;21053;50.848;4.652;2023-08-08T01:43:37;13.70;99.90
34837;DHT22;21053;50.848;4.652;2023-08-08T01:46:04;13.80;99.90
34837;DHT22;21053;50.848;4.652;2023-08-08T01:48:32;13.80;99.90
34837;DHT22;21053;50.848;4.652;2023-08-08T01:50:58;13.90;99.90
34837;DHT22;21053;50.848;4.652;2023-08-08T01:53:25;13.90;99.90
34837;DHT22;21053;50.848;4.652;2023-08-08T01:55:54;13.90;99.90
34837;DHT22;21053;50.848;4.652;2023-08-08T01:58:22;13.90;99.90
34837;DHT22;21053;50.848;4.652;2023-08-08T02:00:48;14.00;99.90
34837;DHT22;21053;50.848;4.652;2023-08-08T02:03:14;14.00;99.90
34837;DHT22;21053;50.848;4.652;2023-08-08T02:05:40;14.10;99.90
34837;DHT22;21053;50.848;4.652;2023-08-08T02:08:07;14.10;99.90
34837;DHT22;21053;50.848;4.652;2023-08-08T02:10:33;14.10;99.90
34837;DHT22;21053;50.848;4.652;2023-08-08T02:12:58;14.10;99.90
34837;DHT22;21053;50.848;4.652;2023-08-08T02:15:25;14.00;99.90
34837;DHT22;21053;50.848;4.652;2023-08-08T02:17:51;14.20;99.90
34837;DHT22;21053;50.848;4.652;2023-08-08T02:20:20;14.20;99.90
34837;DHT22;21053;50.848;4.652;2023-08-08T02:22:46;14.20;99.90
34837;DHT22;21053;50.848;4.652;2023-08-08T02:25:12;14.20;99.90
34837;DHT22;21053;50.848;4.652;2023-08-08T02:27:39;14.20;99.90
34837;DHT22;21053;50.848;4.652;2023-08-08T02:30:11;14.30;99.90
34837;DHT22;21053;50.848;4.652;2023-08-08T02:32:38;14.30;99.90
34837;DHT22;21053;50.848;4.652;2023-08-08T02:35:05;14.20;99.90
34837;DHT22;21053;50.848;4.652;2023-08-08T02:37:31;14.30;99.90
34837;DHT22;21053;50.848;4.652;2023-08-08T02:40:00;14.40;99.90
34837;DHT22;21053;50.848;4.652;2023-08-08T02:42:26;14.40;99.90
34837;DHT22;21053;50.848;4.652;2023-08-08T02:44:53;14.50;99.90
34837;DHT22;21053;50.848;4.652;2023-08-08T02:47:20;14.50;99.90
34837;DHT22;21053;50.848;4.652;2023-08-08T02:49:47;14.50;99.90
34837;DHT22;21053;50.848;4.652;2023-08-08T02:52:14;14.50;99.90
34837;DHT22;21053;50.848;4.652;2023-08-08T02:54:41;14.50;99.90
34837;DHT22;21053;50.848;4.652;2023-08-08T02:57:08;14.40;99.90
34837;DHT22;21053;50.848;4.652;2023-08-08T02:59:38;14.30;99.90
34837;DHT22;21053;50.848;4.652;2023-08-08T03:02:05;14.40;99.90
34837;DHT22;21053;50.848;4.652;2023-08-08T03:04:32;14.30;99.90
34837;DHT22;21053;50.848;4.652;2023-08-08T03:06:58;14.30;99.90
34837;DHT22;21053;50.848;4.652;2023-08-08T03:09:27;14.40;99.90
34837;DHT22;21053;50.848;4.652;2023-08-08T03:11:54;14.50;99.90
34837;DHT22;21053;50.848;4.652;2023-08-08T03:14:21;14.30;99.90
34837;DHT22;21053;50.848;4.652;2023-08-08T03:16:47;14.50;99.90
34837;DHT22;21053;50.848;4.652;2023-08-08T03:19:15;14.50;99.90
34837;DHT22;21053;50.848;4.652;2023-08-08T03:21:40;14.40;99.90
34837;DHT22;21053;50.848;4.652;2023-08-08T03:24:07;14.40;99.90
34837;DHT22;21053;50.848;4.652;2023-08-08T03:26:35;14.40;99.90
34837;DHT22;21053;50.848;4.652;2023-08-08T03:29:03;14.30;99.90
34837;DHT22;21053;50.848;4.652;2023-08-08T03:31:30;14.30;99.90
34837;DHT22;21053;50.848;4.652;2023-08-08T03:33:56;14.30;99.90
34837;DHT22;21053;50.848;4.652;2023-08-08T03:36:22;14.20;99.90
34837;DHT22;21053;50.848;4.652;2023-08-08T03:38:47;14.10;99.90
34837;DHT22;21053;50.848;4.652;2023-08-08T03:41:15;14.10;99.90
34837;DHT22;21053;50.848;4.652;2023-08-08T03:43:41;14.10;99.90
34837;DHT22;21053;50.848;4.652;2023-08-08T03:46:08;14.20;99.90
34837;DHT22;21053;50.848;4.652;2023-08-08T03:48:38;14.10;99.90
34837;DHT22;21053;50.848;4.652;2023-08-08T03:51:04;14.10;99.90
34837;DHT22;21053;50.848;4.652;2023-08-08T03:53:30;14.10;99.90
34837;DHT22;21053;50.848;4.652;2023-08-08T03:55:57;14.10;99.90
34837;DHT22;21053;50.848;4.652;2023-08-08T03:58:26;14.00;99.90
34837;DHT22;21053;50.848;4.652;2023-08-08T04:00:55;13.90;99.90
34837;DHT22;21053;50.848;4.652;2023-08-08T04:03:23;13.90;99.90
34837;DHT22;21053;50.848;4.652;2023-08-08T04:05:50;13.90;99.90
34837;DHT22;21053;50.848;4.652;2023-08-08T04:08:16;14.00;99.90
34837;DHT22;21053;50.848;4.652;2023-08-08T04:10:42;14.10;99.90
34837;DHT22;21053;50.848;4.652;2023-08-08T04:13:09;13.90;99.90
34837;DHT22;21053;50.848;4.652;2023-08-08T04:15:35;13.80;99.90
34837;DHT22;21053;50.848;4.652;2023-08-08T04:18:01;13.80;99.90
34837;DHT22;21053;50.848;4.652;2023-08-08T04:20:27;13.90;99.90
34837;DHT22;21053;50.848;4.652;2023-08-08T04:22:53;13.90;99.90
34837;DHT22;21053;50.848;4.652;2023-08-08T04:25:21;13.90;99.90
34837;DHT22;21053;50.848;4.652;2023-08-08T04:27:48;13.90;99.90
34837;DHT22;21053;50.848;4.652;2023-08-08T04:30:15;14.00;99.90
34837;DHT22;21053;50.848;4.652;2023-08-08T04:32:42;14.00;99.90
34837;DHT22;21053;50.848;4.652;2023-08-08T04:35:08;14.00;99.90
34837;DHT22;21053;50.848;4.652;2023-08-08T04:37:37;13.90;99.90
34837;DHT22;21053;50.848;4.652;2023-08-08T04:40:04;14.00;99.90
34837;DHT22;21053;50.848;4.652;2023-08-08T04:42:32;14.10;99.90
34837;DHT22;21053;50.848;4.652;2023-08-08T04:45:00;14.00;99.90
34837;DHT22;21053;50.848;4.652;2023-08-08T04:47:26;14.10;99.90
34837;DHT22;21053;50.848;4.652;2023-08-08T04:49:52;14.10;99.90
34837;DHT22;21053;50.848;4.652;2023-08-08T04:52:20;14.10;99.90
34837;DHT22;21053;50.848;4.652;2023-08-08T04:54:48;14.10;99.90
34837;DHT22;21053;50.848;4.652;2023-08-08T04:57:15;14.20;99.90
34837;DHT22;21053;50.848;4.652;2023-08-08T04:59:41;14.00;99.90
34837;DHT22;21053;50.848;4.652;2023-08-08T05:02:14;14.00;99.90
34837;DHT22;21053;50.848;4.652;2023-08-08T05:04:43;14.10;99.90
34837;DHT22;21053;50.848;4.652;2023-08-08T05:07:10;14.20;99.90
34837;DHT22;21053;50.848;4.652;2023-08-08T05:09:39;14.30;99.90
34837;DHT22;21053;50.848;4.652;2023-08-08T05:12:06;14.30;99.90
34837;DHT22;21053;50.848;4.652;2023-08-08T05:14:32;14.20;99.90
34837;DHT22;21053;50.848;4.652;2023-08-08T05:17:02;14.20;99.90
34837;DHT22;21053;50.848;4.652;2023-08-08T05:19:28;14.30;99.90
34837;DHT22;21053;50.848;4.652;2023-08-08T05:21:55;14.40;99.90
34837;DHT22;21053;50.848;4.652;2023-08-08T05:24:23;14.40;99.90
34837;DHT22;21053;50.848;4.652;2023-08-08T05:26:52;14.40;99.90
34837;DHT22;21053;50.848;4.652;2023-08-08T05:29:19;14.40;99.90
34837;DHT22;21053;50.848;4.652;2023-08-08T05:31:45;14.50;99.90
34837;DHT22;21053;50.848;4.652;2023-08-08T05:34:13;14.60;99.90
34837;DHT22;21053;50.848;4.652;2023-08-08T05:36:39;14.60;99.90
34837;DHT22;21053;50.848;4.652;2023-08-08T05:39:05;14.50;99.90
34837;DHT22;21053;50.848;4.652;2023-08-08T05:41:33;14.60;99.90
34837;DHT22;21053;50.848;4.652;2023-08-08T05:44:00;14.60;99.90
34837;DHT22;21053;50.848;4.652;2023-08-08T05:46:28;14.60;99.90
34837;DHT22;21053;50.848;4.652;2023-08-08T05:48:53;14.70;99.90
34837;DHT22;21053;50.848;4.652;2023-08-08T05:51:21;14.80;99.90
34837;DHT22;21053;50.848;4.652;2023-08-08T05:53:50;14.90;99.90
34837;DHT22;21053;50.848;4.652;2023-08-08T05:56:18;15.00;99.90
34837;DHT22;21053;50.848;4.652;2023-08-08T06:01:20;15.00;99.90
34837;DHT22;21053;50.848;4.652;2023-08-08T06:03:46;15.10;99.90
34837;DHT22;21053;50.848;4.652;2023-08-08T06:06:12;15.10;99.90
34837;DHT22;21053;50.848;4.652;2023-08-08T06:08:40;15.30;99.90
34837;DHT22;21053;50.848;4.652;2023-08-08T06:11:06;15.40;99.90
34837;DHT22;21053;50.848;4.652;2023-08-08T06:13:32;15.60;99.90
34837;DHT22;21053;50.848;4.652;2023-08-08T06:16:00;15.60;99.90
34837;DHT22;21053;50.848;4.652;2023-08-08T06:18:27;15.60;99.90
34837;DHT22;21053;50.848;4.652;2023-08-08T06:20:53;15.70;99.90
34837;DHT22;21053;50.848;4.652;2023-08-08T06:23:21;15.60;99.90
34837;DHT22;21053;50.848;4.652;2023-08-08T06:25:47;15.60;99.90
34837;DHT22;21053;50.848;4.652;2023-08-08T06:28:14;15.60;99.90
34837;DHT22;21053;50.848;4.652;2023-08-08T06:30:41;15.60;99.90
34837;DHT22;21053;50.848;4.652;2023-08-08T06:33:10;15.70;99.90
34837;DHT22;21053;50.848;4.652;2023-08-08T06:35:35;15.80;99.90
34837;DHT22;21053;50.848;4.652;2023-08-08T06:38:02;15.80;99.90
34837;DHT22;21053;50.848;4.652;2023-08-08T06:40:29;15.70;99.90
34837;DHT22;21053;50.848;4.652;2023-08-08T06:42:57;15.70;99.90
34837;DHT22;21053;50.848;4.652;2023-08-08T06:45:26;15.90;99.90
34837;DHT22;21053;50.848;4.652;2023-08-08T06:47:53;16.00;99.90
34837;DHT22;21053;50.848;4.652;2023-08-08T06:50:20;15.90;99.90
34837;DHT22;21053;50.848;4.652;2023-08-08T06:52:47;16.10;99.90
34837;DHT22;21053;50.848;4.652;2023-08-08T06:55:12;16.40;99.90
34837;DHT22;21053;50.848;4.652;2023-08-08T06:57:40;16.50;99.90
34837;DHT22;21053;50.848;4.652;2023-08-08T07:00:12;16.70;99.90
34837;DHT22;21053;50.848;4.652;2023-08-08T07:02:39;16.80;99.90
34837;DHT22;21053;50.848;4.652;2023-08-08T07:05:08;16.80;99.90
34837;DHT22;21053;50.848;4.652;2023-08-08T07:07:37;16.80;99.90
34837;DHT22;21053;50.848;4.652;2023-08-08T07:10:04;16.90;99.90
34837;DHT22;21053;50.848;4.652;2023-08-08T07:12:32;16.80;99.90
34837;DHT22;21053;50.848;4.652;2023-08-08T07:14:59;16.70;99.90
34837;DHT22;21053;50.848;4.652;2023-08-08T07:17:26;16.80;99.90
34837;DHT22;21053;50.848;4.652;2023-08-08T07:19:52;16.90;99.90
34837;DHT22;21053;50.848;4.652;2023-08-08T07:22:19;17.00;99.90
34837;DHT22;21053;50.848;4.652;2023-08-08T07:24:45;17.20;99.90
34837;DHT22;21053;50.848;4.652;2023-08-08T07:27:12;17.10;99.90
34837;DHT22;21053;50.848;4.652;2023-08-08T07:29:38;17.10;99.90
34837;DHT22;21053;50.848;4.652;2023-08-08T07:32:05;17.20;99.90
34837;DHT22;21053;50.848;4.652;2023-08-08T07:34:31;17.30;99.90
34837;DHT22;21053;50.848;4.652;2023-08-08T07:37:00;17.30;99.90
34837;DHT22;21053;50.848;4.652;2023-08-08T07:39:27;17.50;99.90
34837;DHT22;21053;50.848;4.652;2023-08-08T07:41:55;17.50;99.90
34837;DHT22;21053;50.848;4.652;2023-08-08T07:44:21;17.40;99.90
34837;DHT22;21053;50.848;4.652;2023-08-08T07:46:51;17.50;99.90
34837;DHT22;21053;50.848;4.652;2023-08-08T07:49:17;17.60;99.90
34837;DHT22;21053;50.848;4.652;2023-08-08T07:51:43;17.60;99.90
34837;DHT22;21053;50.848;4.652;2023-08-08T07:54:09;17.50;99.90
34837;DHT22;21053;50.848;4.652;2023-08-08T07:56:36;17.50;99.90
34837;DHT22;21053;50.848;4.652;2023-08-08T07:59:02;17.50;99.90
34837;DHT22;21053;50.848;4.652;2023-08-08T08:01:29;17.60;99.90
34837;DHT22;21053;50.848;4.652;2023-08-08T08:03:56;17.70;99.90
34837;DHT22;21053;50.848;4.652;2023-08-08T08:06:24;17.70;99.90
34837;DHT22;21053;50.848;4.652;2023-08-08T08:08:51;17.90;99.90
34837;DHT22;21053;50.848;4.652;2023-08-08T08:11:17;17.80;99.90
34837;DHT22;21053;50.848;4.652;2023-08-08T08:13:44;17.90;99.90
34837;DHT22;21053;50.848;4.652;2023-08-08T08:16:13;18.00;99.90
34837;DHT22;21053;50.848;4.652;2023-08-08T08:18:42;18.00;99.90
34837;DHT22;21053;50.848;4.652;2023-08-08T08:21:08;18.10;99.90
34837;DHT22;21053;50.848;4.652;2023-08-08T08:23:34;18.20;99.90
34837;DHT22;21053;50.848;4.652;2023-08-08T08:26:01;18.30;99.90
34837;DHT22;21053;50.848;4.652;2023-08-08T08:28:28;18.20;99.90
34837;DHT22;21053;50.848;4.652;2023-08-08T08:30:55;18.20;99.90
34837;DHT22;21053;50.848;4.652;2023-08-08T08:33:21;18.20;99.90
34837;DHT22;21053;50.848;4.652;2023-08-08T08:35:47;18.30;99.90
34837;DHT22;21053;50.848;4.652;2023-08-08T08:38:13;18.20;99.90
34837;DHT22;21053;50.848;4.652;2023-08-08T08:40:41;18.10;99.90
34837;DHT22;21053;50.848;4.652;2023-08-08T08:43:09;18.20;99.90
34837;DHT22;21053;50.848;4.652;2023-08-08T08:45:39;18.30;99.90
34837;DHT22;21053;50.848;4.652;2023-08-08T08:48:10;18.60;99.90
34837;DHT22;21053;50.848;4.652;2023-08-08T08:50:56;18.70;99.90
34837;DHT22;21053;50.848;4.652;2023-08-08T08:53:33;18.70;99.90
34837;DHT22;21053;50.848;4.652;2023-08-08T08:56:07;18.70;99.90
34837;DHT22;21053;50.848;4.652;2023-08-08T08:58:34;18.80;99.90
34837;DHT22;21053;50.848;4.652;2023-08-08T09:01:00;18.80;99.90
34837;DHT22;21053;50.848;4.652;2023-08-08T09:03:28;18.70;99.90
34837;DHT22;21053;50.848;4.652;2023-08-08T09:05:54;18.80;99.90
34837;DHT22;21053;50.848;4.652;2023-08-08T09:08:21;19.10;99.90
34837;DHT22;21053;50.848;4.652;2023-08-08T09:10:50;19.30;99.90
34837;DHT22;21053;50.848;4.652;2023-08-08T09:13:18;19.40;99.90
34837;DHT22;21053;50.848;4.652;2023-08-08T09:15:47;19.10;99.90
34837;DHT22;21053;50.848;4.652;2023-08-08T09:18:13;19.40;99.90
34837;DHT22;21053;50.848;4.652;2023-08-08T09:20:38;19.50;99.90
34837;DHT22;21053;50.848;4.652;2023-08-08T09:23:04;19.50;99.90
34837;DHT22;21053;50.848;4.652;2023-08-08T09:25:31;19.30;99.90
34837;DHT22;21053;50.848;4.652;2023-08-08T09:27:57;19.50;99.90
34837;DHT22;21053;50.848;4.652;2023-08-08T09:30:23;20.10;99.90
34837;DHT22;21053;50.848;4.652;2023-08-08T09:32:48;20.80;99.90
34837;DHT22;21053;50.848;4.652;2023-08-08T09:35:16;20.80;99.90
34837;DHT22;21053;50.848;4.652;2023-08-08T09:37:42;20.80;99.90
34837;DHT22;21053;50.848;4.652;2023-08-08T09:40:08;20.60;99.90
34837;DHT22;21053;50.848;4.652;2023-08-08T09:42:40;21.00;99.90
34837;DHT22;21053;50.848;4.652;2023-08-08T09:45:20;20.90;99.90
34837;DHT22;21053;50.848;4.652;2023-08-08T09:48:09;20.80;99.90
34837;DHT22;21053;50.848;4.652;2023-08-08T09:50:37;20.70;99.90
34837;DHT22;21053;50.848;4.652;2023-08-08T09:53:10;20.80;99.90
34837;DHT22;21053;50.848;4.652;2023-08-08T09:55:38;20.40;99.90
34837;DHT22;21053;50.848;4.652;2023-08-08T09:58:09;20.30;99.90
34837;DHT22;21053;50.848;4.652;2023-08-08T10:00:38;20.30;99.90
34837;DHT22;21053;50.848;4.652;2023-08-08T10:03:06;20.20;99.90
34837;DHT22;21053;50.848;4.652;2023-08-08T10:05:39;20.60;99.90
34837;DHT22;21053;50.848;4.652;2023-08-08T10:08:06;20.00;99.90
34837;DHT22;21053;50.848;4.652;2023-08-08T10:10:33;19.80;99.90
34837;DHT22;21053;50.848;4.652;2023-08-08T10:13:01;19.90;99.90
34837;DHT22;21053;50.848;4.652;2023-08-08T10:15:29;19.80;99.90
34837;DHT22;21053;50.848;4.652;2023-08-08T10:17:57;19.90;99.90
34837;DHT22;21053;50.848;4.652;2023-08-08T10:20:25;19.70;99.90
34837;DHT22;21053;50.848;4.652;2023-08-08T10:22:53;19.80;99.90
34837;DHT22;21053;50.848;4.652;2023-08-08T10:25:30;19.80;99.90
34837;DHT22;21053;50.848;4.652;2023-08-08T10:28:09;19.70;99.90
34837;DHT22;21053;50.848;4.652;2023-08-08T10:30:44;19.60;99.90
34837;DHT22;21053;50.848;4.652;2023-08-08T10:33:22;19.70;99.90
34837;DHT22;21053;50.848;4.652;2023-08-08T10:36:01;19.60;99.90
34837;DHT22;21053;50.848;4.652;2023-08-08T10:38:49;19.00;99.90
34837;DHT22;21053;50.848;4.652;2023-08-08T10:41:21;19.00;99.90
34837;DHT22;21053;50.848;4.652;2023-08-08T10:43:58;18.80;99.90
34837;DHT22;21053;50.848;4.652;2023-08-08T10:46:29;18.50;99.90
34837;DHT22;21053;50.848;4.652;2023-08-08T10:49:00;18.50;99.90
34837;DHT22;21053;50.848;4.652;2023-08-08T10:51:40;18.50;99.90
34837;DHT22;21053;50.848;4.652;2023-08-08T10:54:29;18.60;99.90
34837;DHT22;21053;50.848;4.652;2023-08-08T10:57:02;18.60;99.90
34837;DHT22;21053;50.848;4.652;2023-08-08T10:59:37;18.50;99.90
34837;DHT22;21053;50.848;4.652;2023-08-08T11:02:03;18.30;99.90
34837;DHT22;21053;50.848;4.652;2023-08-08T11:04:30;18.30;99.90
34837;DHT22;21053;50.848;4.652;2023-08-08T11:06:58;18.40;99.90
34837;DHT22;21053;50.848;4.652;2023-08-08T11:09:25;18.50;99.90
34837;DHT22;21053;50.848;4.652;2023-08-08T11:11:53;18.70;99.90
34837;DHT22;21053;50.848;4.652;2023-08-08T11:14:22;18.70;99.90
34837;DHT22;21053;50.848;4.652;2023-08-08T11:16:49;18.70;99.90
34837;DHT22;21053;50.848;4.652;2023-08-08T11:19:18;18.70;99.90
34837;DHT22;21053;50.848;4.652;2023-08-08T11:21:49;18.70;99.90
34837;DHT22;21053;50.848;4.652;2023-08-08T11:24:16;18.80;99.90
34837;DHT22;21053;50.848;4.652;2023-08-08T11:26:44;18.80;99.90
34837;DHT22;21053;50.848;4.652;2023-08-08T11:29:12;18.80;99.90
34837;DHT22;21053;50.848;4.652;2023-08-08T11:31:40;19.00;99.90
34837;DHT22;21053;50.848;4.652;2023-08-08T11:34:07;18.90;99.90
34837;DHT22;21053;50.848;4.652;2023-08-08T11:36:37;19.00;99.90
34837;DHT22;21053;50.848;4.652;2023-08-08T11:39:06;19.00;99.90
34837;DHT22;21053;50.848;4.652;2023-08-08T11:41:38;19.30;99.90
34837;DHT22;21053;50.848;4.652;2023-08-08T11:44:06;19.30;99.90
34837;DHT22;21053;50.848;4.652;2023-08-08T11:46:35;19.30;99.90
34837;DHT22;21053;50.848;4.652;2023-08-08T11:49:09;19.40;99.90
34837;DHT22;21053;50.848;4.652;2023-08-08T11:51:35;19.50;99.90
34837;DHT22;21053;50.848;4.652;2023-08-08T11:54:03;19.50;99.90
34837;DHT22;21053;50.848;4.652;2023-08-08T11:56:33;19.30;99.90
34837;DHT22;21053;50.848;4.652;2023-08-08T11:59:00;19.20;99.90
34837;DHT22;21053;50.848;4.652;2023-08-08T12:01:32;19.10;99.90
34837;DHT22;21053;50.848;4.652;2023-08-08T12:04:05;19.20;99.90
34837;DHT22;21053;50.848;4.652;2023-08-08T12:06:32;19.00;99.90
34837;DHT22;21053;50.848;4.652;2023-08-08T12:09:02;19.10;99.90
34837;DHT22;21053;50.848;4.652;2023-08-08T12:11:34;19.10;99.90
34837;DHT22;21053;50.848;4.652;2023-08-08T12:14:02;19.10;98.90
34837;DHT22;21053;50.848;4.652;2023-08-08T12:16:37;19.20;99.90
34837;DHT22;21053;50.848;4.652;2023-08-08T12:19:07;19.20;99.90
34837;DHT22;21053;50.848;4.652;2023-08-08T12:21:35;19.00;99.90
34837;DHT22;21053;50.848;4.652;2023-08-08T12:24:03;19.00;99.90
34837;DHT22;21053;50.848;4.652;2023-08-08T12:26:30;19.30;99.90
34837;DHT22;21053;50.848;4.652;2023-08-08T12:28:58;19.70;99.90
34837;DHT22;21053;50.848;4.652;2023-08-08T12:31:29;20.20;99.90
34837;DHT22;21053;50.848;4.652;2023-08-08T12:33:57;20.60;99.90
34837;DHT22;21053;50.848;4.652;2023-08-08T12:36:27;20.90;99.90
34837;DHT22;21053;50.848;4.652;2023-08-08T12:38:54;21.00;99.90
34837;DHT22;21053;50.848;4.652;2023-08-08T12:41:21;21.20;99.50
34837;DHT22;21053;50.848;4.652;2023-08-08T12:43:47;21.30;99.00
34837;DHT22;21053;50.848;4.652;2023-08-08T12:46:13;21.30;99.90
34837;DHT22;21053;50.848;4.652;2023-08-08T12:48:42;20.90;98.20
34837;DHT22;21053;50.848;4.652;2023-08-08T12:51:12;20.70;98.30
34837;DHT22;21053;50.848;4.652;2023-08-08T12:53:38;20.40;98.30
34837;DHT22;21053;50.848;4.652;2023-08-08T12:56:04;20.20;99.40
34837;DHT22;21053;50.848;4.652;2023-08-08T12:58:29;20.50;99.90
34837;DHT22;21053;50.848;4.652;2023-08-08T13:00:57;21.00;99.90
34837;DHT22;21053;50.848;4.652;2023-08-08T13:03:26;21.40;99.60
34837;DHT22;21053;50.848;4.652;2023-08-08T13:05:52;21.20;97.90
34837;DHT22;21053;50.848;4.652;2023-08-08T13:10:48;21.40;98.00
34837;DHT22;21053;50.848;4.652;2023-08-08T13:13:16;21.30;99.00
34837;DHT22;21053;50.848;4.652;2023-08-08T13:15:45;21.20;99.10
34837;DHT22;21053;50.848;4.652;2023-08-08T13:18:11;21.10;99.10
34837;DHT22;21053;50.848;4.652;2023-08-08T13:20:38;20.00;98.70
34837;DHT22;21053;50.848;4.652;2023-08-08T13:23:10;19.90;99.90
34837;DHT22;21053;50.848;4.652;2023-08-08T13:25:35;20.10;99.90
34837;DHT22;21053;50.848;4.652;2023-08-08T13:28:02;20.10;99.90
34837;DHT22;21053;50.848;4.652;2023-08-08T13:30:30;20.30;99.90
34837;DHT22;21053;50.848;4.652;2023-08-08T13:32:59;20.50;99.90
34837;DHT22;21053;50.848;4.652;2023-08-08T13:35:25;20.40;99.90
34837;DHT22;21053;50.848;4.652;2023-08-08T13:37:54;20.50;99.90
34837;DHT22;21053;50.848;4.652;2023-08-08T13:40:23;20.50;99.30
34837;DHT22;21053;50.848;4.652;2023-08-08T13:42:52;20.60;99.20
34837;DHT22;21053;50.848;4.652;2023-08-08T13:45:20;20.50;97.30
34837;DHT22;21053;50.848;4.652;2023-08-08T13:47:49;20.30;98.60
34837;DHT22;21053;50.848;4.652;2023-08-08T13:50:21;20.30;99.10
34837;DHT22;21053;50.848;4.652;2023-08-08T13:52:46;20.50;98.80
34837;DHT22;21053;50.848;4.652;2023-08-08T13:55:13;20.50;99.00
34837;DHT22;21053;50.848;4.652;2023-08-08T13:57:41;20.40;98.70
34837;DHT22;21053;50.848;4.652;2023-08-08T14:00:07;20.50;97.90
34837;DHT22;21053;50.848;4.652;2023-08-08T14:02:39;20.60;98.80
34837;DHT22;21053;50.848;4.652;2023-08-08T14:05:06;20.70;98.80
34837;DHT22;21053;50.848;4.652;2023-08-08T14:07:35;20.80;99.00
34837;DHT22;21053;50.848;4.652;2023-08-08T14:10:05;20.70;98.00
34837;DHT22;21053;50.848;4.652;2023-08-08T14:12:33;20.60;98.90
34837;DHT22;21053;50.848;4.652;2023-08-08T14:15:05;20.70;98.90
34837;DHT22;21053;50.848;4.652;2023-08-08T14:17:32;20.90;98.00
34837;DHT22;21053;50.848;4.652;2023-08-08T14:20:02;21.00;97.40
34837;DHT22;21053;50.848;4.652;2023-08-08T14:22:30;20.80;98.00
34837;DHT22;21053;50.848;4.652;2023-08-08T14:24:59;20.70;98.30
34837;DHT22;21053;50.848;4.652;2023-08-08T14:27:25;20.70;97.80
34837;DHT22;21053;50.848;4.652;2023-08-08T14:29:51;20.70;98.50
34837;DHT22;21053;50.848;4.652;2023-08-08T14:32:17;20.60;98.40
34837;DHT22;21053;50.848;4.652;2023-08-08T14:34:44;20.30;97.70
34837;DHT22;21053;50.848;4.652;2023-08-08T14:37:09;20.20;99.50
34837;DHT22;21053;50.848;4.652;2023-08-08T14:39:36;20.20;98.60
34837;DHT22;21053;50.848;4.652;2023-08-08T14:42:05;20.10;98.50
34837;DHT22;21053;50.848;4.652;2023-08-08T14:44:31;20.00;99.10
34837;DHT22;21053;50.848;4.652;2023-08-08T14:46:58;20.00;99.30
34837;DHT22;21053;50.848;4.652;2023-08-08T14:49:25;20.00;99.00
34837;DHT22;21053;50.848;4.652;2023-08-08T14:51:51;20.00;99.60
34837;DHT22;21053;50.848;4.652;2023-08-08T14:54:18;19.90;99.70
34837;DHT22;21053;50.848;4.652;2023-08-08T14:56:44;19.70;99.90
34837;DHT22;21053;50.848;4.652;2023-08-08T14:59:10;19.70;99.90
34837;DHT22;21053;50.848;4.652;2023-08-08T15:01:36;19.70;99.90
34837;DHT22;21053;50.848;4.652;2023-08-08T15:04:03;19.60;99.50
34837;DHT22;21053;50.848;4.652;2023-08-08T15:06:29;19.70;99.90
34837;DHT22;21053;50.848;4.652;2023-08-08T15:08:56;19.90;99.90
34837;DHT22;21053;50.848;4.652;2023-08-08T15:11:24;19.90;99.90
34837;DHT22;21053;50.848;4.652;2023-08-08T15:13:50;20.00;99.90
34837;DHT22;21053;50.848;4.652;2023-08-08T15:16:17;20.10;99.90
34837;DHT22;21053;50.848;4.652;2023-08-08T15:18:45;20.30;99.30
34837;DHT22;21053;50.848;4.652;2023-08-08T15:21:11;20.20;99.20
34837;DHT22;21053;50.848;4.652;2023-08-08T15:23:37;20.10;98.80
34837;DHT22;21053;50.848;4.652;2023-08-08T15:26:02;20.10;99.70
34837;DHT22;21053;50.848;4.652;2023-08-08T15:28:28;20.10;99.70
34837;DHT22;21053;50.848;4.652;2023-08-08T15:30:55;20.00;99.90
34837;DHT22;21053;50.848;4.652;2023-08-08T15:33:22;19.80;99.90
34837;DHT22;21053;50.848;4.652;2023-08-08T15:35:51;19.70;99.90
34837;DHT22;21053;50.848;4.652;2023-08-08T15:38:17;19.70;99.90
34837;DHT22;21053;50.848;4.652;2023-08-08T15:40:44;19.80;99.90
34837;DHT22;21053;50.848;4.652;2023-08-08T15:43:12;19.60;99.90